Time;durP1;ratioP1;P1;durP2;ratioP2;P2;SDS_P1;SDS_P2;PMS_P1;PMS_P2;Temp;Humidity;BMP_temperature;BMP_pressure;BME280_temperature;BME280_humidity;BME280_pressure;Samples;Min_cycle;Max_cycle;Signal;HPM_P1;HPM_P2
2021/11/07 00:04:40;;;;;;;57.00;23.13;;;;;;;;;;4900487;29;20202;-72
2021/11/07 00:11:34;;;;;;;37.57;21.63;;;;;;;;;;4899894;29;20234;-72
2021/11/07 00:14:38;;;;;;;38.63;22.53;;;;;;;;;;4902721;29;20194;-72
2021/11/07 00:17:49;;;;;;;42.97;21.23;;;;;;;;;;4918367;29;20204;-72
2021/11/07 00:24:26;;;;;;;45.33;20.87;;;;;;;;;;4919233;29;20565;-72
2021/11/07 00:27:38;;;;;;;48.87;22.23;;;;;;;;;;4917754;29;20201;-72
2021/11/07 00:37:35;;;;;;;41.97;22.73;;;;;;;;;;4910487;29;20193;-72
2021/11/07 00:40:46;;;;;;;45.37;24.27;;;;;;;;;;4918525;29;20225;-72
2021/11/07 00:44:00;;;;;;;42.20;23.30;;;;;;;;;;4918574;29;20727;-72
2021/11/07 00:50:35;;;;;;;45.43;25.03;;;;;;;;;;4918439;29;20533;-72
2021/11/07 00:57:15;;;;;;;46.83;25.20;;;;;;;;;;4917707;29;20197;-72
2021/11/07 01:03:55;;;;;;;44.53;24.20;;;;;;;;;;4918541;29;20216;-72
2021/11/07 01:06:59;;;;;;;47.90;25.47;;;;;;;;;;4918605;29;20513;-72
2021/11/07 01:10:04;;;;;;;49.07;25.57;;;;;;;;;;4918388;29;20181;-72
2021/11/07 01:13:08;;;;;;;51.93;27.20;;;;;;;;;;4917708;29;20181;-72
2021/11/07 01:16:12;;;;;;;46.27;26.07;;;;;;;;;;4910255;29;20201;-72
2021/11/07 01:19:17;;;;;;;51.40;27.33;;;;;;;;;;4899626;29;20530;-72
2021/11/07 01:22:32;;;;;;;51.93;27.17;;;;;;;;;;4898792;29;20217;-72
2021/11/07 01:25:44;;;;;;;52.87;27.37;;;;;;;;;;4899175;29;20185;-72
2021/11/07 01:28:56;;;;;;;54.67;27.13;;;;;;;;;;4909088;29;20197;-72
2021/11/07 01:32:02;;;;;;;51.93;26.00;;;;;;;;;;4898020;29;20225;-72
2021/11/07 01:38:28;;;;;;;55.77;28.67;;;;;;;;;;4899125;29;20181;-72
2021/11/07 01:41:43;;;;;;;55.27;28.53;;;;;;;;;;4899007;29;20225;-72
2021/11/07 01:44:53;;;;;;;58.83;28.27;;;;;;;;;;4898933;29;20213;-72
2021/11/07 01:51:10;;;;;;;55.20;26.97;;;;;;;;;;4898980;29;20217;-72
2021/11/07 01:54:25;;;;;;;55.73;29.93;;;;;;;;;;4898818;29;20182;-72
2021/11/07 01:57:31;;;;;;;60.73;30.63;;;;;;;;;;4897815;29;20669;-72
2021/11/07 02:00:36;;;;;;;51.63;27.60;;;;;;;;;;4898662;29;20221;-72
2021/11/07 02:03:41;;;;;;;54.80;27.60;;;;;;;;;;4887085;29;20221;-72
2021/11/07 02:06:45;;;;;;;52.07;26.73;;;;;;;;;;4898919;29;20514;-72
2021/11/07 02:09:50;;;;;;;57.77;30.13;;;;;;;;;;4898286;29;20189;-72
2021/11/07 02:12:54;;;;;;;61.33;29.07;;;;;;;;;;4908573;29;20182;-72
2021/11/07 02:15:59;;;;;;;51.90;27.73;;;;;;;;;;4898228;29;20182;-72
2021/11/07 02:19:03;;;;;;;53.73;27.97;;;;;;;;;;4898699;29;20190;-72
2021/11/07 02:22:07;;;;;;;52.57;28.00;;;;;;;;;;4898228;29;20217;-72
2021/11/07 02:25:11;;;;;;;50.93;27.30;;;;;;;;;;4898089;29;20185;-72
2021/11/07 02:28:29;;;;;;;54.27;27.77;;;;;;;;;;4898621;29;20633;-72
2021/11/07 02:31:33;;;;;;;52.90;27.87;;;;;;;;;;4898523;29;20558;-72
2021/11/07 02:34:37;;;;;;;48.97;26.47;;;;;;;;;;4898042;29;20545;-72
2021/11/07 02:37:43;;;;;;;55.77;28.70;;;;;;;;;;4898805;29;20625;-72
2021/11/07 02:40:47;;;;;;;56.57;28.60;;;;;;;;;;4897330;29;20696;-72
2021/11/07 02:43:53;;;;;;;59.17;28.83;;;;;;;;;;4897358;29;20225;-72
2021/11/07 02:46:59;;;;;;;57.53;29.70;;;;;;;;;;4902212;29;20193;-72
2021/11/07 02:50:04;;;;;;;61.13;28.83;;;;;;;;;;4902419;29;20185;-72
2021/11/07 02:53:08;;;;;;;53.30;29.00;;;;;;;;;;4912412;29;20196;-73
2021/11/07 02:56:14;;;;;;;53.67;27.87;;;;;;;;;;4920612;29;20196;-73
2021/11/07 02:59:21;;;;;;;48.30;25.83;;;;;;;;;;4920053;29;20541;-73
2021/11/07 03:02:27;;;;;;;52.13;27.53;;;;;;;;;;4919914;29;20216;-73
2021/11/07 03:05:32;;;;;;;55.00;28.07;;;;;;;;;;4920946;29;20188;-72
2021/11/07 03:08:42;;;;;;;55.53;27.50;;;;;;;;;;4919878;29;20679;-73
2021/11/07 03:11:48;;;;;;;48.67;25.27;;;;;;;;;;4920795;29;20220;-72
2021/11/07 03:14:52;;;;;;;48.13;26.27;;;;;;;;;;4920815;29;20181;-72
2021/11/07 03:17:57;;;;;;;48.33;25.97;;;;;;;;;;4920787;29;20674;-72
2021/11/07 03:21:06;;;;;;;45.20;24.70;;;;;;;;;;4919906;29;20706;-72
2021/11/07 03:24:12;;;;;;;47.07;25.50;;;;;;;;;;4920615;29;20221;-72
2021/11/07 03:27:24;;;;;;;48.13;25.57;;;;;;;;;;4920389;29;20185;-72
2021/11/07 03:33:48;;;;;;;54.10;27.37;;;;;;;;;;4919878;29;20209;-73
2021/11/07 03:36:56;;;;;;;45.07;24.97;;;;;;;;;;4919564;29;20193;-73
2021/11/07 03:40:00;;;;;;;47.93;25.60;;;;;;;;;;4919880;29;20185;-72
2021/11/07 03:43:05;;;;;;;46.10;25.03;;;;;;;;;;4920024;29;20184;-73
2021/11/07 03:46:10;;;;;;;45.90;25.50;;;;;;;;;;4919261;29;20185;-72
2021/11/07 03:49:14;;;;;;;52.13;26.20;;;;;;;;;;4920197;29;20185;-73
2021/11/07 03:52:19;;;;;;;52.17;26.53;;;;;;;;;;4919546;29;20220;-73
2021/11/07 03:55:24;;;;;;;49.13;26.63;;;;;;;;;;4918513;29;20182;-73
2021/11/07 03:58:28;;;;;;;51.93;26.83;;;;;;;;;;4920311;29;20181;-73
2021/11/07 04:01:33;;;;;;;47.40;25.90;;;;;;;;;;4918645;29;20224;-73
2021/11/07 04:04:39;;;;;;;49.03;26.53;;;;;;;;;;4919351;29;20217;-73
2021/11/07 04:07:43;;;;;;;50.87;27.00;;;;;;;;;;4919912;29;20533;-73
2021/11/07 04:10:47;;;;;;;44.57;25.63;;;;;;;;;;4919256;29;20212;-73
2021/11/07 04:13:51;;;;;;;43.87;24.40;;;;;;;;;;4919274;29;20177;-72
2021/11/07 04:16:55;;;;;;;40.73;23.23;;;;;;;;;;4919769;29;20181;-73
2021/11/07 04:20:00;;;;;;;39.53;22.90;;;;;;;;;;4919364;29;20545;-73
2021/11/07 04:23:04;;;;;;;43.67;22.93;;;;;;;;;;4919337;29;20200;-73
2021/11/07 04:26:09;;;;;;;40.83;22.90;;;;;;;;;;4919135;29;20181;-72
2021/11/07 04:29:12;;;;;;;42.13;23.10;;;;;;;;;;4907982;29;20192;-73
2021/11/07 04:32:17;;;;;;;40.53;23.17;;;;;;;;;;4918844;29;20220;-73
2021/11/07 04:35:21;;;;;;;39.63;22.93;;;;;;;;;;4918526;29;20196;-73
2021/11/07 04:38:27;;;;;;;41.43;22.63;;;;;;;;;;4918302;29;20184;-73
2021/11/07 04:41:31;;;;;;;39.57;23.30;;;;;;;;;;4918684;29;20220;-73
2021/11/07 04:44:36;;;;;;;43.13;23.47;;;;;;;;;;4918910;29;20669;-73
2021/11/07 04:47:40;;;;;;;40.57;22.77;;;;;;;;;;4917904;29;20648;-73
2021/11/07 04:50:46;;;;;;;41.27;22.70;;;;;;;;;;4918847;29;20224;-73
2021/11/07 04:53:51;;;;;;;39.47;22.60;;;;;;;;;;4917727;29;20656;-73
2021/11/07 04:56:55;;;;;;;40.67;22.67;;;;;;;;;;4919017;29;20177;-73
2021/11/07 04:59:59;;;;;;;35.90;21.73;;;;;;;;;;4918986;29;20625;-73
2021/11/07 05:03:05;;;;;;;37.07;21.67;;;;;;;;;;4918934;29;20541;-73
2021/11/07 05:06:09;;;;;;;37.53;21.67;;;;;;;;;;4918578;29;20181;-73
2021/11/07 05:09:13;;;;;;;33.87;20.17;;;;;;;;;;4906335;29;20189;-73
2021/11/07 05:12:17;;;;;;;36.83;20.43;;;;;;;;;;4918407;29;20719;-73
2021/11/07 05:15:22;;;;;;;32.80;19.60;;;;;;;;;;4918446;29;20541;-73
2021/11/07 05:18:26;;;;;;;32.27;19.30;;;;;;;;;;4918394;29;20180;-73
2021/11/07 05:21:30;;;;;;;28.63;18.50;;;;;;;;;;4917734;29;20224;-73
2021/11/07 05:24:35;;;;;;;30.37;17.97;;;;;;;;;;4918130;29;20209;-73
2021/11/07 05:27:40;;;;;;;28.50;17.97;;;;;;;;;;4918458;29;21113;-73
2021/11/07 05:30:44;;;;;;;34.53;20.17;;;;;;;;;;4899193;29;20225;-73
2021/11/07 05:33:48;;;;;;;27.17;17.33;;;;;;;;;;4898077;29;20213;-73
2021/11/07 05:36:54;;;;;;;31.27;18.13;;;;;;;;;;4966955;23;20685;-86
2021/11/07 07:38:38;;;;;;;24.37;16.87;;;;;;;;;;4918444;29;21230;-70
2021/11/07 07:41:43;;;;;;;31.90;23.83;;;;;;;;;;4919161;29;20718;-70
2021/11/07 07:44:51;;;;;;;29.63;20.67;;;;;;;;;;4918683;29;20205;-70
2021/11/07 07:47:56;;;;;;;32.63;22.53;;;;;;;;;;4919427;29;20561;-70
2021/11/07 07:51:00;;;;;;;23.93;16.93;;;;;;;;;;4919652;29;20708;-70
2021/11/07 07:54:05;;;;;;;23.90;17.30;;;;;;;;;;4918552;29;20197;-70
2021/11/07 07:57:09;;;;;;;26.77;16.73;;;;;;;;;;4907893;29;20193;-70
2021/11/07 08:00:16;;;;;;;28.73;19.07;;;;;;;;;;4919793;29;20181;-70
2021/11/07 08:03:21;;;;;;;25.33;16.87;;;;;;;;;;4919270;29;20200;-70
2021/11/07 08:06:25;;;;;;;26.30;18.00;;;;;;;;;;4919368;29;20565;-70
2021/11/07 08:09:29;;;;;;;23.47;17.27;;;;;;;;;;4907796;29;20185;-70
2021/11/07 08:12:33;;;;;;;25.90;17.57;;;;;;;;;;4919021;29;20224;-70
2021/11/07 08:15:38;;;;;;;24.17;16.27;;;;;;;;;;4907381;29;20184;-70
2021/11/07 08:18:42;;;;;;;24.37;16.17;;;;;;;;;;4919018;29;20185;-70
2021/11/07 08:21:46;;;;;;;24.33;16.37;;;;;;;;;;4918866;29;20584;-70
2021/11/07 08:24:51;;;;;;;22.57;15.70;;;;;;;;;;4919285;29;20220;-70
2021/11/07 08:28:01;;;;;;;25.03;16.70;;;;;;;;;;4919375;29;20185;-70
2021/11/07 08:31:08;;;;;;;25.23;15.83;;;;;;;;;;4918435;29;20584;-70
2021/11/07 08:34:13;;;;;;;22.87;16.10;;;;;;;;;;4900284;29;20649;-71
2021/11/07 08:37:19;;;;;;;24.83;14.80;;;;;;;;;;4915215;29;20212;-70
2021/11/07 08:40:40;;;;;;;21.60;14.60;;;;;;;;;;4907354;29;20205;-70
2021/11/07 09:00:46;;;;;;;20.37;13.77;;;;;;;;;;4917552;29;20220;-71
2021/11/07 09:07:21;;;;;;;20.87;14.67;;;;;;;;;;4914733;29;20189;-72
2021/11/07 09:10:29;;;;;;;23.10;13.63;;;;;;;;;;4914555;29;20364;-72
2021/11/07 09:13:34;;;;;;;21.33;14.50;;;;;;;;;;4903148;29;20197;-72
2021/11/07 09:16:38;;;;;;;20.33;14.17;;;;;;;;;;4914320;29;20193;-72
2021/11/07 09:19:44;;;;;;;22.00;14.23;;;;;;;;;;4914370;29;20204;-70
2021/11/07 09:22:56;;;;;;;18.20;13.87;;;;;;;;;;4914559;29;20660;-70
2021/11/07 09:29:11;;;;;;;17.93;13.20;;;;;;;;;;4883829;29;20186;-73
2021/11/07 09:35:43;;;;;;;18.97;13.60;;;;;;;;;;4895412;29;20178;-73
2021/11/07 09:45:09;;;;;;;17.57;12.27;;;;;;;;;;4913993;29;20185;-73
2021/11/07 09:48:26;;;;;;;16.57;11.70;;;;;;;;;;4913107;29;20192;-73
2021/11/07 09:51:35;;;;;;;16.83;11.77;;;;;;;;;;4901760;29;20220;-73
2021/11/07 09:54:47;;;;;;;16.27;11.97;;;;;;;;;;4912412;29;20189;-73
2021/11/07 09:57:54;;;;;;;15.90;11.93;;;;;;;;;;4913956;29;20185;-73
2021/11/07 10:00:59;;;;;;;17.23;12.20;;;;;;;;;;4913744;29;20224;-73
2021/11/07 10:04:04;;;;;;;18.50;13.13;;;;;;;;;;4912918;29;20660;-73
2021/11/07 10:07:23;;;;;;;22.10;16.13;;;;;;;;;;4912652;29;20212;-73
2021/11/07 10:10:32;;;;;;;15.77;12.30;;;;;;;;;;4913602;29;20548;-73
2021/11/07 10:13:37;;;;;;;16.00;11.47;;;;;;;;;;4913437;29;20193;-73
2021/11/07 10:16:50;;;;;;;16.63;11.57;;;;;;;;;;4907750;29;20193;-73
2021/11/07 10:21:06;;;;;;;15.73;12.10;;;;;;;;;;4901185;29;20208;-72
2021/11/07 10:24:15;;;;;;;13.30;10.43;;;;;;;;;;4906810;29;20200;-73
2021/11/07 10:27:19;;;;;;;17.03;11.23;;;;;;;;;;4912441;29;20193;-73
2021/11/07 10:30:26;;;;;;;14.07;10.47;;;;;;;;;;4916682;29;20181;-73
2021/11/07 10:33:56;;;;;;;14.27;10.37;;;;;;;;;;4915368;29;20205;-73
2021/11/07 10:46:41;;;;;;;14.53;11.07;;;;;;;;;;4905705;29;20224;-73
2021/11/07 10:53:19;;;;;;;16.77;11.93;;;;;;;;;;4918187;29;20526;-73
2021/11/07 10:56:24;;;;;;;15.17;11.60;;;;;;;;;;4916119;29;20181;-73
2021/11/07 10:59:28;;;;;;;14.10;11.13;;;;;;;;;;4917534;29;20185;-73
2021/11/07 11:02:58;;;;;;;15.73;11.53;;;;;;;;;;4916112;29;20220;-73
2021/11/07 11:06:36;;;;;;;14.50;10.23;;;;;;;;;;4906690;29;20537;-73
2021/11/07 11:09:37;;;;;;;15.30;10.47;;;;;;;;;;4920759;29;20176;-73
2021/11/07 11:13:11;;;;;;;14.50;11.20;;;;;;;;;;4919905;29;20181;-73
2021/11/07 11:26:14;;;;;;;13.33;9.33;;;;;;;;;;4920176;29;20683;-73
2021/11/07 11:33:18;;;;;;;13.30;9.40;;;;;;;;;;4920462;29;20220;-73
2021/11/07 11:36:35;;;;;;;12.43;9.33;;;;;;;;;;4909697;29;20196;-73
2021/11/07 11:39:45;;;;;;;15.13;11.33;;;;;;;;;;4918658;29;20232;-73
2021/11/07 11:46:44;;;;;;;11.60;9.37;;;;;;;;;;4939080;29;20212;-73
2021/11/07 11:50:19;;;;;;;12.27;10.00;;;;;;;;;;4938887;29;20188;-73
2021/11/07 11:56:37;;;;;;;12.30;9.47;;;;;;;;;;4927152;29;20185;-73
2021/11/07 12:03:24;;;;;;;10.87;8.40;;;;;;;;;;4927589;29;20181;-73
2021/11/07 12:09:58;;;;;;;11.70;9.10;;;;;;;;;;4926936;29;20184;-73
2021/11/07 12:13:37;;;;;;;10.60;8.20;;;;;;;;;;4938386;29;20197;-73
2021/11/07 12:16:49;;;;;;;11.00;8.00;;;;;;;;;;4938564;29;20185;-73
2021/11/07 12:19:53;;;;;;;11.67;8.63;;;;;;;;;;4926770;29;20196;-73
2021/11/07 12:23:27;;;;;;;10.63;7.90;;;;;;;;;;4926460;29;20200;-73
2021/11/07 12:26:32;;;;;;;9.40;7.20;;;;;;;;;;4938121;29;20548;-73
2021/11/07 12:29:42;;;;;;;9.80;7.43;;;;;;;;;;4938465;29;20635;-74
2021/11/07 12:32:49;;;;;;;9.30;7.33;;;;;;;;;;4938602;29;20181;-73
2021/11/07 12:36:05;;;;;;;8.47;6.80;;;;;;;;;;4926142;29;20200;-73
2021/11/07 12:43:03;;;;;;;10.63;7.83;;;;;;;;;;4938564;29;20184;-73
2021/11/07 12:46:53;;;;;;;9.33;6.93;;;;;;;;;;4926668;29;20212;-73
2021/11/07 12:50:01;;;;;;;8.60;7.00;;;;;;;;;;4926473;29;20192;-73
2021/11/07 12:53:05;;;;;;;9.10;6.63;;;;;;;;;;4938128;29;20200;-73
2021/11/07 12:56:09;;;;;;;8.83;7.00;;;;;;;;;;4926113;29;20180;-73
2021/11/07 12:59:18;;;;;;;9.50;7.60;;;;;;;;;;4937987;29;20624;-73
2021/11/07 13:02:31;;;;;;;10.47;7.90;;;;;;;;;;4938347;29;20219;-73
2021/11/07 13:05:42;;;;;;;9.97;7.70;;;;;;;;;;4937768;29;20192;-73
2021/11/07 13:08:54;;;;;;;11.77;8.57;;;;;;;;;;4938143;29;20176;-73
2021/11/07 13:12:09;;;;;;;9.50;7.77;;;;;;;;;;4937397;29;20223;-74
2021/11/07 13:26:02;;;;;;;10.77;7.90;;;;;;;;;;4914720;29;20177;-73
2021/11/07 13:35:33;;;;;;;10.50;8.10;;;;;;;;;;4937303;29;20184;-73
2021/11/07 13:38:50;;;;;;;10.20;7.83;;;;;;;;;;4937364;29;20624;-73
2021/11/07 13:41:57;;;;;;;10.03;8.33;;;;;;;;;;4937463;29;20220;-73
2021/11/07 13:45:04;;;;;;;10.30;7.97;;;;;;;;;;4937513;29;20200;-73
2021/11/07 13:48:12;;;;;;;11.10;8.47;;;;;;;;;;4925336;29;20220;-73
2021/11/07 13:51:16;;;;;;;16.93;10.20;;;;;;;;;;4937093;29;20228;-73
2021/11/07 13:54:21;;;;;;;17.43;11.27;;;;;;;;;;4936832;29;20188;-73
2021/11/07 13:57:31;;;;;;;26.93;15.03;;;;;;;;;;4937129;29;20184;-73
2021/11/07 14:00:36;;;;;;;15.47;10.27;;;;;;;;;;4925112;29;20754;-73
2021/11/07 14:03:42;;;;;;;11.67;8.07;;;;;;;;;;4936671;29;20180;-73
2021/11/07 14:06:45;;;;;;;23.13;13.97;;;;;;;;;;4937140;29;20212;-73
2021/11/07 14:10:14;;;;;;;20.87;13.50;;;;;;;;;;4936725;29;20188;-73
2021/11/07 14:13:19;;;;;;;31.83;19.13;;;;;;;;;;4936977;29;20184;-73
2021/11/07 14:16:31;;;;;;;39.97;23.37;;;;;;;;;;4937295;29;20184;-73
2021/11/07 14:19:45;;;;;;;27.33;17.77;;;;;;;;;;4936539;29;20540;-73
2021/11/07 14:23:11;;;;;;;11.37;8.27;;;;;;;;;;4936704;29;20180;-73
2021/11/07 14:26:37;;;;;;;10.93;8.03;;;;;;;;;;4936081;29;20632;-73
2021/11/07 14:29:43;;;;;;;10.00;7.93;;;;;;;;;;4936400;29;20188;-73
2021/11/07 14:32:58;;;;;;;11.93;8.20;;;;;;;;;;4936728;29;20180;-73
2021/11/07 14:36:16;;;;;;;9.77;6.97;;;;;;;;;;4936418;29;20200;-73
2021/11/07 14:39:40;;;;;;;8.57;6.87;;;;;;;;;;4936523;29;20192;-73
2021/11/07 14:43:31;;;;;;;8.43;6.47;;;;;;;;;;4924652;29;20184;-73
2021/11/07 14:46:37;;;;;;;8.43;6.60;;;;;;;;;;4935954;29;20180;-73
2021/11/07 14:53:13;;;;;;;10.17;7.77;;;;;;;;;;4925125;29;20509;-73
2021/11/07 14:59:42;;;;;;;9.83;7.53;;;;;;;;;;4925094;29;20192;-72
2021/11/07 15:02:59;;;;;;;12.87;9.00;;;;;;;;;;4936070;29;20184;-72
2021/11/07 15:06:24;;;;;;;39.00;19.73;;;;;;;;;;4936201;29;20188;-72
2021/11/07 15:09:58;;;;;;;13.00;8.53;;;;;;;;;;4924719;29;20533;-73
2021/11/07 15:13:10;;;;;;;10.60;7.50;;;;;;;;;;4936498;29;20185;-72
2021/11/07 15:16:25;;;;;;;9.63;8.07;;;;;;;;;;4924332;29;20200;-73
2021/11/07 15:19:41;;;;;;;9.20;7.40;;;;;;;;;;4936358;29;20636;-72
2021/11/07 15:22:48;;;;;;;9.90;7.07;;;;;;;;;;4935960;29;20186;-73
2021/11/07 15:25:53;;;;;;;9.17;6.73;;;;;;;;;;4923865;29;20199;-73
2021/11/07 15:29:11;;;;;;;8.07;6.47;;;;;;;;;;4935729;29;20192;-73
2021/11/07 15:32:16;;;;;;;10.13;8.67;;;;;;;;;;4935450;29;20582;-73
2021/11/07 15:35:26;;;;;;;9.03;6.47;;;;;;;;;;4935716;29;20181;-72
2021/11/07 15:38:31;;;;;;;8.87;6.43;;;;;;;;;;4923984;29;20169;-72
2021/11/07 15:41:36;;;;;;;8.07;6.30;;;;;;;;;;4923864;29;20219;-72
2021/11/07 15:45:04;;;;;;;8.17;6.47;;;;;;;;;;4935674;29;20180;-72
2021/11/07 15:48:09;;;;;;;10.33;7.80;;;;;;;;;;4935559;29;20208;-73
2021/11/07 15:51:32;;;;;;;9.33;7.13;;;;;;;;;;4924368;29;20224;-73
2021/11/07 15:54:43;;;;;;;7.70;6.63;;;;;;;;;;4939164;29;20189;-72
2021/11/07 16:08:03;;;;;;;9.23;6.67;;;;;;;;;;4927099;29;20204;-73
2021/11/07 16:17:41;;;;;;;7.30;5.83;;;;;;;;;;4938872;29;20177;-72
2021/11/07 16:20:45;;;;;;;7.70;6.10;;;;;;;;;;4938626;29;20698;-72
2021/11/07 16:23:49;;;;;;;10.40;6.30;;;;;;;;;;4916154;29;20188;-73
2021/11/07 16:26:58;;;;;;;8.10;5.87;;;;;;;;;;4938661;29;20188;-73
2021/11/07 16:30:04;;;;;;;10.13;5.73;;;;;;;;;;4919698;29;20189;-73
2021/11/07 16:33:23;;;;;;;7.57;6.17;;;;;;;;;;4921300;29;20188;-73
2021/11/07 16:36:34;;;;;;;7.57;5.37;;;;;;;;;;4918526;29;20204;-73
2021/11/07 16:39:48;;;;;;;7.17;5.20;;;;;;;;;;4913875;29;20184;-72
2021/11/07 16:42:52;;;;;;;8.30;5.53;;;;;;;;;;4934574;29;20189;-72
2021/11/07 16:46:01;;;;;;;7.10;5.30;;;;;;;;;;4919081;29;20621;-73
2021/11/07 16:49:07;;;;;;;6.80;5.20;;;;;;;;;;4922744;29;20557;-73
2021/11/07 16:52:14;;;;;;;9.00;5.60;;;;;;;;;;4918757;29;20224;-73
2021/11/07 16:55:36;;;;;;;6.67;5.13;;;;;;;;;;4918833;29;20188;-73
2021/11/07 16:59:02;;;;;;;6.03;4.70;;;;;;;;;;4927918;29;20204;-72
2021/11/07 17:02:16;;;;;;;7.47;5.20;;;;;;;;;;4903551;29;20224;-73
2021/11/07 17:05:24;;;;;;;7.23;5.20;;;;;;;;;;4922817;29;20200;-72
2021/11/07 17:08:53;;;;;;;7.47;5.50;;;;;;;;;;4915285;29;20713;-72
2021/11/07 17:12:06;;;;;;;6.60;4.93;;;;;;;;;;4932261;29;20228;-73
2021/11/07 17:15:17;;;;;;;6.50;4.53;;;;;;;;;;4912841;29;20203;-73
2021/11/07 17:18:25;;;;;;;6.53;4.67;;;;;;;;;;4931808;29;20189;-73
2021/11/07 17:27:59;;;;;;;6.23;4.10;;;;;;;;;;4915369;29;20572;-73
2021/11/07 17:31:16;;;;;;;5.70;4.27;;;;;;;;;;4924385;29;20224;-73
2021/11/07 17:34:31;;;;;;;5.40;4.33;;;;;;;;;;4932379;29;20193;-73
2021/11/07 17:37:50;;;;;;;6.47;4.13;;;;;;;;;;4933226;29;20665;-73
2021/11/07 17:41:18;;;;;;;7.77;5.87;;;;;;;;;;4910492;29;20703;-73
2021/11/07 17:54:39;;;;;;;8.47;5.70;;;;;;;;;;4931709;29;20204;-73
2021/11/07 17:57:43;;;;;;;6.80;5.67;;;;;;;;;;4918902;29;20193;-73
2021/11/07 18:00:47;;;;;;;6.40;5.53;;;;;;;;;;4902168;29;20224;-73
2021/11/07 18:03:54;;;;;;;6.13;5.03;;;;;;;;;;4919999;29;20211;-73
2021/11/07 18:07:06;;;;;;;8.17;4.60;;;;;;;;;;4932770;29;20196;-73
2021/11/07 18:10:12;;;;;;;7.03;4.10;;;;;;;;;;4902948;29;20561;-73
2021/11/07 18:13:28;;;;;;;6.47;4.33;;;;;;;;;;4913759;29;20549;-73
2021/11/07 18:16:33;;;;;;;5.07;3.73;;;;;;;;;;4913870;29;20197;-73
2021/11/07 18:19:37;;;;;;;6.63;4.40;;;;;;;;;;4918457;29;20192;-72
2021/11/07 18:22:47;;;;;;;8.63;4.17;;;;;;;;;;4932551;29;20656;-72
2021/11/07 18:25:59;;;;;;;6.13;4.50;;;;;;;;;;4932422;29;20184;-73
2021/11/07 18:29:04;;;;;;;5.47;4.13;;;;;;;;;;4930946;29;20211;-73
2021/11/07 18:32:08;;;;;;;6.50;4.17;;;;;;;;;;4923357;29;20221;-72
2021/11/07 18:35:13;;;;;;;5.83;4.37;;;;;;;;;;4913301;29;20650;-73
2021/11/07 18:38:26;;;;;;;5.00;3.90;;;;;;;;;;4914279;29;20204;-73
2021/11/07 18:41:30;;;;;;;5.57;4.40;;;;;;;;;;4923550;29;20627;-73
2021/11/07 18:44:35;;;;;;;5.97;4.40;;;;;;;;;;4913027;29;20206;-73
2021/11/07 18:47:39;;;;;;;6.00;4.40;;;;;;;;;;4926938;29;20216;-73
2021/11/07 18:50:45;;;;;;;5.97;4.00;;;;;;;;;;4913253;29;20228;-73
2021/11/07 18:53:51;;;;;;;6.77;4.37;;;;;;;;;;4913230;29;20189;-73
2021/11/07 18:56:55;;;;;;;6.03;4.40;;;;;;;;;;4922982;29;20189;-73
2021/11/07 18:59:59;;;;;;;7.23;4.53;;;;;;;;;;4927300;29;20193;-73
2021/11/07 19:03:05;;;;;;;7.63;4.30;;;;;;;;;;4917266;29;20231;-73
2021/11/07 19:06:09;;;;;;;7.67;5.07;;;;;;;;;;4930066;29;20204;-73
2021/11/07 19:09:13;;;;;;;8.43;5.13;;;;;;;;;;4931781;29;20679;-73
2021/11/07 19:12:17;;;;;;;6.43;4.77;;;;;;;;;;4924225;29;20224;-73
2021/11/07 19:15:23;;;;;;;7.93;4.90;;;;;;;;;;4925955;29;20203;-73
2021/11/07 19:18:31;;;;;;;5.80;4.90;;;;;;;;;;4912512;29;20533;-73
2021/11/07 19:21:35;;;;;;;8.67;5.07;;;;;;;;;;4916604;29;20228;-73
2021/11/07 19:24:39;;;;;;;8.90;5.33;;;;;;;;;;4909173;29;20200;-73
2021/11/07 19:27:44;;;;;;;7.97;5.57;;;;;;;;;;4915992;29;20193;-73
2021/11/07 19:30:50;;;;;;;11.03;5.50;;;;;;;;;;4916486;29;20236;-73
2021/11/07 19:33:54;;;;;;;7.27;5.63;;;;;;;;;;4916376;29;20189;-73
2021/11/07 19:36:58;;;;;;;7.37;5.57;;;;;;;;;;4916291;29;20205;-73
2021/11/07 19:40:04;;;;;;;8.07;5.30;;;;;;;;;;4916267;29;20195;-73
2021/11/07 19:43:09;;;;;;;6.87;5.10;;;;;;;;;;4929698;29;20667;-73
2021/11/07 19:46:15;;;;;;;7.37;5.27;;;;;;;;;;4916171;29;20204;-73
2021/11/07 19:49:26;;;;;;;9.17;6.73;;;;;;;;;;4922450;29;20204;-73
2021/11/07 19:52:32;;;;;;;8.10;5.67;;;;;;;;;;4933088;29;20665;-73
2021/11/07 19:55:37;;;;;;;7.23;5.37;;;;;;;;;;4935216;29;20576;-73
2021/11/07 19:58:42;;;;;;;7.37;5.00;;;;;;;;;;4922475;29;20193;-73
2021/11/07 20:06:13;;;;;;;7.30;5.50;;;;;;;;;;4934909;29;20204;-73
2021/11/07 20:11:28;;;;;;;9.37;5.30;;;;;;;;;;4915674;29;20225;-73
2021/11/07 20:14:39;;;;;;;7.07;5.17;;;;;;;;;;4916797;29;20209;-73
2021/11/07 20:17:44;;;;;;;7.70;5.97;;;;;;;;;;4920046;29;20204;-73
2021/11/07 20:20:50;;;;;;;7.93;5.47;;;;;;;;;;4922686;29;20212;-73
2021/11/07 20:23:55;;;;;;;13.17;9.20;;;;;;;;;;4920165;29;20613;-73
2021/11/07 20:26:59;;;;;;;8.33;6.23;;;;;;;;;;4933623;29;20192;-73
2021/11/07 20:30:04;;;;;;;7.83;5.90;;;;;;;;;;4903847;29;20508;-73
2021/11/07 20:33:11;;;;;;;9.83;6.63;;;;;;;;;;4921623;29;20196;-73
2021/11/07 20:36:23;;;;;;;10.00;6.13;;;;;;;;;;4921545;29;20200;-73
2021/11/07 20:39:30;;;;;;;9.20;6.13;;;;;;;;;;4922423;29;20667;-73
2021/11/07 20:42:38;;;;;;;8.23;6.23;;;;;;;;;;4925454;29;20216;-73
2021/11/07 20:52:10;;;;;;;11.40;7.33;;;;;;;;;;4933843;29;20228;-73
2021/11/07 20:55:37;;;;;;;12.70;7.83;;;;;;;;;;4911418;29;20592;-73
2021/11/07 20:59:01;;;;;;;12.07;8.43;;;;;;;;;;4933927;29;20193;-73
2021/11/07 21:02:28;;;;;;;12.50;8.13;;;;;;;;;;4919309;29;20219;-73
2021/11/07 21:05:39;;;;;;;12.47;8.33;;;;;;;;;;4916132;29;20649;-73
2021/11/07 21:08:54;;;;;;;14.90;9.53;;;;;;;;;;4923368;29;20221;-73
2021/11/07 21:15:54;;;;;;;13.47;9.43;;;;;;;;;;4922342;29;20188;-73
2021/11/07 21:28:43;;;;;;;14.23;9.50;;;;;;;;;;4894093;29;20213;-73
2021/11/07 21:31:50;;;;;;;14.43;10.30;;;;;;;;;;4918508;29;20220;-73
2021/11/07 21:35:10;;;;;;;14.87;10.47;;;;;;;;;;4922299;29;20208;-73
2021/11/07 21:41:30;;;;;;;14.83;10.43;;;;;;;;;;4927506;29;20229;-73
2021/11/07 21:44:35;;;;;;;14.40;9.93;;;;;;;;;;4920808;29;20216;-73
2021/11/07 21:47:40;;;;;;;16.20;10.60;;;;;;;;;;4931662;29;20221;-73
2021/11/07 21:50:44;;;;;;;15.60;10.47;;;;;;;;;;4913486;29;20711;-73
2021/11/07 21:53:49;;;;;;;14.50;10.17;;;;;;;;;;4930588;29;20571;-73
2021/11/07 21:56:53;;;;;;;13.70;9.93;;;;;;;;;;4924720;29;20200;-73
2021/11/07 21:59:57;;;;;;;14.90;10.73;;;;;;;;;;4976085;23;20222;-85
2021/11/07 22:03:02;;;;;;;14.30;10.77;;;;;;;;;;4942136;28;20179;-85
2021/11/07 22:06:06;;;;;;;16.30;10.70;;;;;;;;;;4941835;28;20183;-85
2021/11/07 22:09:11;;;;;;;16.13;11.83;;;;;;;;;;4939423;28;20206;-85
2021/11/07 22:12:15;;;;;;;15.47;11.00;;;;;;;;;;4929020;29;20188;-85
2021/11/07 22:15:24;;;;;;;14.13;10.47;;;;;;;;;;4904094;29;20189;-85
2021/11/07 22:18:39;;;;;;;15.43;10.87;;;;;;;;;;4925217;29;20528;-85
2021/11/07 22:21:57;;;;;;;14.20;10.23;;;;;;;;;;4916662;29;20192;-85
2021/11/07 22:25:06;;;;;;;15.47;10.17;;;;;;;;;;4922219;29;20192;-86
2021/11/07 22:28:11;;;;;;;13.40;9.37;;;;;;;;;;4922714;29;20183;-86
2021/11/07 22:31:21;;;;;;;12.57;8.63;;;;;;;;;;4922246;29;20219;-86
2021/11/07 22:34:27;;;;;;;12.57;9.27;;;;;;;;;;4913962;29;20187;-86
2021/11/07 22:37:34;;;;;;;13.83;9.60;;;;;;;;;;4943758;29;20199;-86
2021/11/07 22:40:38;;;;;;;12.33;7.87;;;;;;;;;;4917346;29;20215;-86
2021/11/07 22:43:43;;;;;;;15.83;10.37;;;;;;;;;;4921878;29;20184;-86
2021/11/07 22:46:47;;;;;;;33.07;15.80;;;;;;;;;;4921526;29;20532;-86
2021/11/07 22:49:57;;;;;;;19.07;11.60;;;;;;;;;;4913419;29;20576;-87
2021/11/07 23:03:07;;;;;;;8.43;5.43;;;;;;;;;;4936403;29;20200;-85
2021/11/07 23:06:23;;;;;;;6.63;5.20;;;;;;;;;;4917624;29;20184;-85
2021/11/07 23:09:34;;;;;;;10.57;5.87;;;;;;;;;;4917203;29;20232;-87
2021/11/07 23:12:38;;;;;;;19.23;8.67;;;;;;;;;;4907082;29;20192;-88
2021/11/07 23:15:43;;;;;;;9.43;5.60;;;;;;;;;;4922817;29;20195;-88
2021/11/07 23:18:47;;;;;;;8.23;5.63;;;;;;;;;;4936290;29;20185;-86
2021/11/07 23:21:57;;;;;;;10.03;5.93;;;;;;;;;;4935275;29;20196;-86
2021/11/07 23:25:24;;;;;;;7.13;5.03;;;;;;;;;;4935115;29;20188;-85
2021/11/07 23:28:29;;;;;;;7.83;5.30;;;;;;;;;;4935484;29;20528;-86
2021/11/07 23:31:37;;;;;;;8.40;5.37;;;;;;;;;;4935943;29;20187;-85
2021/11/07 23:34:41;;;;;;;9.33;5.53;;;;;;;;;;4935809;29;20199;-85
2021/11/07 23:37:46;;;;;;;7.17;5.10;;;;;;;;;;4924284;29;20662;-86
2021/11/07 23:40:52;;;;;;;8.93;5.23;;;;;;;;;;4935476;29;20215;-88
2021/11/07 23:43:57;;;;;;;9.07;5.47;;;;;;;;;;4935798;29;20199;-88
2021/11/07 23:47:02;;;;;;;7.37;4.83;;;;;;;;;;4910119;29;20187;-88
2021/11/07 23:56:21;;;;;;;8.33;5.33;;;;;;;;;;4935523;29;20191;-88
2021/11/07 23:59:26;;;;;;;8.87;5.30;;;;;;;;;;4946048;29;20231;-88
